sensor_id;sensor_type;location;lat;lon;timestamp;P1;durP1;ratioP1;P2;durP2;ratioP2
8538;SDS011;4307;53.868;11.680;2022-10-16T00:01:45;4.73;;;4.23;;
8538;SDS011;4307;53.868;11.680;2022-10-16T00:04:12;5.70;;;3.97;;
8538;SDS011;4307;53.868;11.680;2022-10-16T00:06:39;4.13;;;3.83;;
8538;SDS011;4307;53.868;11.680;2022-10-16T00:09:06;5.10;;;4.60;;
8538;SDS011;4307;53.868;11.680;2022-10-16T00:11:38;3.30;;;3.00;;
8538;SDS011;4307;53.868;11.680;2022-10-16T00:14:06;4.90;;;4.43;;
8538;SDS011;4307;53.868;11.680;2022-10-16T00:16:35;5.10;;;4.60;;
8538;SDS011;4307;53.868;11.680;2022-10-16T00:19:02;5.23;;;4.73;;
8538;SDS011;4307;53.868;11.680;2022-10-16T00:21:29;6.73;;;5.20;;
8538;SDS011;4307;53.868;11.680;2022-10-16T00:23:57;5.40;;;4.73;;
8538;SDS011;4307;53.868;11.680;2022-10-16T00:26:25;5.87;;;4.83;;
8538;SDS011;4307;53.868;11.680;2022-10-16T00:28:54;6.47;;;5.13;;
8538;SDS011;4307;53.868;11.680;2022-10-16T00:31:21;6.43;;;5.83;;
8538;SDS011;4307;53.868;11.680;2022-10-16T00:33:49;6.33;;;5.73;;
8538;SDS011;4307;53.868;11.680;2022-10-16T00:36:17;7.73;;;5.47;;
8538;SDS011;4307;53.868;11.680;2022-10-16T00:38:45;5.97;;;5.37;;
8538;SDS011;4307;53.868;11.680;2022-10-16T00:41:13;6.00;;;5.40;;
8538;SDS011;4307;53.868;11.680;2022-10-16T00:43:41;6.00;;;5.30;;
8538;SDS011;4307;53.868;11.680;2022-10-16T00:46:13;5.70;;;5.20;;
8538;SDS011;4307;53.868;11.680;2022-10-16T00:48:45;8.63;;;6.20;;
8538;SDS011;4307;53.868;11.680;2022-10-16T00:51:14;5.70;;;5.10;;
8538;SDS011;4307;53.868;11.680;2022-10-16T00:53:43;5.17;;;4.67;;
8538;SDS011;4307;53.868;11.680;2022-10-16T00:56:10;6.47;;;5.20;;
8538;SDS011;4307;53.868;11.680;2022-10-16T00:58:37;9.40;;;5.00;;
8538;SDS011;4307;53.868;11.680;2022-10-16T01:01:04;5.53;;;5.00;;
8538;SDS011;4307;53.868;11.680;2022-10-16T01:03:33;6.23;;;5.17;;
8538;SDS011;4307;53.868;11.680;2022-10-16T01:06:06;5.50;;;4.90;;
8538;SDS011;4307;53.868;11.680;2022-10-16T01:08:44;4.53;;;4.13;;
8538;SDS011;4307;53.868;11.680;2022-10-16T01:11:21;5.00;;;4.23;;
8538;SDS011;4307;53.868;11.680;2022-10-16T01:13:51;5.80;;;4.67;;
8538;SDS011;4307;53.868;11.680;2022-10-16T01:16:22;6.87;;;4.70;;
8538;SDS011;4307;53.868;11.680;2022-10-16T01:18:56;5.77;;;5.17;;
8538;SDS011;4307;53.868;11.680;2022-10-16T01:21:28;6.10;;;4.27;;
8538;SDS011;4307;53.868;11.680;2022-10-16T01:23:59;5.80;;;4.73;;
8538;SDS011;4307;53.868;11.680;2022-10-16T01:26:36;4.47;;;4.07;;
8538;SDS011;4307;53.868;11.680;2022-10-16T01:29:14;5.13;;;4.60;;
8538;SDS011;4307;53.868;11.680;2022-10-16T01:31:46;5.97;;;4.27;;
8538;SDS011;4307;53.868;11.680;2022-10-16T01:34:17;4.53;;;4.13;;
8538;SDS011;4307;53.868;11.680;2022-10-16T01:36:49;7.83;;;4.17;;
8538;SDS011;4307;53.868;11.680;2022-10-16T01:39:20;5.03;;;4.30;;
8538;SDS011;4307;53.868;11.680;2022-10-16T01:41:52;4.37;;;3.97;;
8538;SDS011;4307;53.868;11.680;2022-10-16T01:44:25;6.10;;;4.50;;
8538;SDS011;4307;53.868;11.680;2022-10-16T01:46:55;6.30;;;4.30;;
8538;SDS011;4307;53.868;11.680;2022-10-16T01:49:23;6.13;;;4.57;;
8538;SDS011;4307;53.868;11.680;2022-10-16T01:51:53;5.33;;;4.13;;
8538;SDS011;4307;53.868;11.680;2022-10-16T01:54:22;6.70;;;4.37;;
8538;SDS011;4307;53.868;11.680;2022-10-16T01:56:51;6.77;;;5.10;;
8538;SDS011;4307;53.868;11.680;2022-10-16T01:59:20;6.10;;;5.07;;
8538;SDS011;4307;53.868;11.680;2022-10-16T02:01:51;7.90;;;5.67;;
8538;SDS011;4307;53.868;11.680;2022-10-16T02:04:21;7.97;;;5.60;;
8538;SDS011;4307;53.868;11.680;2022-10-16T02:06:53;7.43;;;5.60;;
8538;SDS011;4307;53.868;11.680;2022-10-16T02:09:20;6.13;;;5.27;;
8538;SDS011;4307;53.868;11.680;2022-10-16T02:11:47;6.70;;;4.47;;
8538;SDS011;4307;53.868;11.680;2022-10-16T02:14:15;11.50;;;5.40;;
8538;SDS011;4307;53.868;11.680;2022-10-16T02:16:43;7.03;;;5.53;;
8538;SDS011;4307;53.868;11.680;2022-10-16T02:19:13;8.70;;;6.13;;
8538;SDS011;4307;53.868;11.680;2022-10-16T02:21:43;6.10;;;5.50;;
8538;SDS011;4307;53.868;11.680;2022-10-16T02:24:16;5.73;;;5.13;;
8538;SDS011;4307;53.868;11.680;2022-10-16T02:26:49;7.60;;;5.93;;
8538;SDS011;4307;53.868;11.680;2022-10-16T02:29:22;8.30;;;5.70;;
8538;SDS011;4307;53.868;11.680;2022-10-16T02:31:52;7.57;;;4.80;;
8538;SDS011;4307;53.868;11.680;2022-10-16T02:34:25;6.53;;;5.00;;
8538;SDS011;4307;53.868;11.680;2022-10-16T02:36:53;6.80;;;5.33;;
8538;SDS011;4307;53.868;11.680;2022-10-16T02:39:20;6.73;;;5.10;;
8538;SDS011;4307;53.868;11.680;2022-10-16T02:41:47;6.13;;;5.27;;
8538;SDS011;4307;53.868;11.680;2022-10-16T02:44:14;8.93;;;4.60;;
8538;SDS011;4307;53.868;11.680;2022-10-16T02:46:40;7.37;;;5.47;;
8538;SDS011;4307;53.868;11.680;2022-10-16T02:49:07;5.87;;;5.37;;
8538;SDS011;4307;53.868;11.680;2022-10-16T02:51:35;7.63;;;4.97;;
8538;SDS011;4307;53.868;11.680;2022-10-16T02:54:02;7.63;;;5.30;;
8538;SDS011;4307;53.868;11.680;2022-10-16T02:56:29;5.13;;;4.40;;
8538;SDS011;4307;53.868;11.680;2022-10-16T02:58:56;3.40;;;3.10;;
8538;SDS011;4307;53.868;11.680;2022-10-16T03:01:23;5.20;;;4.70;;
8538;SDS011;4307;53.868;11.680;2022-10-16T03:03:50;5.47;;;4.97;;
8538;SDS011;4307;53.868;11.680;2022-10-16T03:06:16;5.40;;;4.10;;
8538;SDS011;4307;53.868;11.680;2022-10-16T03:08:45;4.50;;;3.87;;
8538;SDS011;4307;53.868;11.680;2022-10-16T03:11:12;4.83;;;4.43;;
8538;SDS011;4307;53.868;11.680;2022-10-16T03:13:38;5.63;;;3.60;;
8538;SDS011;4307;53.868;11.680;2022-10-16T03:16:05;5.13;;;3.50;;
8538;SDS011;4307;53.868;11.680;2022-10-16T03:18:31;4.73;;;3.27;;
8538;SDS011;4307;53.868;11.680;2022-10-16T03:20:58;5.63;;;4.07;;
8538;SDS011;4307;53.868;11.680;2022-10-16T03:23:25;4.53;;;3.57;;
8538;SDS011;4307;53.868;11.680;2022-10-16T03:25:53;6.37;;;3.80;;
8538;SDS011;4307;53.868;11.680;2022-10-16T03:28:19;6.93;;;4.20;;
8538;SDS011;4307;53.868;11.680;2022-10-16T03:30:46;4.57;;;3.60;;
8538;SDS011;4307;53.868;11.680;2022-10-16T03:33:13;5.40;;;3.60;;
8538;SDS011;4307;53.868;11.680;2022-10-16T03:35:39;7.70;;;3.57;;
8538;SDS011;4307;53.868;11.680;2022-10-16T03:38:06;5.07;;;3.50;;
8538;SDS011;4307;53.868;11.680;2022-10-16T03:40:33;2.47;;;2.27;;
8538;SDS011;4307;53.868;11.680;2022-10-16T03:43:01;6.30;;;3.40;;
8538;SDS011;4307;53.868;11.680;2022-10-16T03:45:27;3.83;;;3.37;;
8538;SDS011;4307;53.868;11.680;2022-10-16T03:47:54;5.23;;;3.37;;
8538;SDS011;4307;53.868;11.680;2022-10-16T03:50:20;4.67;;;3.07;;
8538;SDS011;4307;53.868;11.680;2022-10-16T03:52:47;2.87;;;2.40;;
8538;SDS011;4307;53.868;11.680;2022-10-16T03:55:14;4.00;;;2.90;;
8538;SDS011;4307;53.868;11.680;2022-10-16T03:57:40;2.23;;;2.07;;
8538;SDS011;4307;53.868;11.680;2022-10-16T04:00:09;3.40;;;2.77;;
8538;SDS011;4307;53.868;11.680;2022-10-16T04:02:37;3.60;;;2.97;;
8538;SDS011;4307;53.868;11.680;2022-10-16T04:05:04;3.40;;;3.10;;
8538;SDS011;4307;53.868;11.680;2022-10-16T04:07:31;2.97;;;2.77;;
8538;SDS011;4307;53.868;11.680;2022-10-16T04:09:57;2.57;;;2.37;;
8538;SDS011;4307;53.868;11.680;2022-10-16T04:12:24;5.20;;;2.80;;
8538;SDS011;4307;53.868;11.680;2022-10-16T04:14:51;6.90;;;3.10;;
8538;SDS011;4307;53.868;11.680;2022-10-16T04:17:19;4.67;;;2.60;;
8538;SDS011;4307;53.868;11.680;2022-10-16T04:19:45;6.90;;;2.73;;
8538;SDS011;4307;53.868;11.680;2022-10-16T04:22:12;3.60;;;3.00;;
8538;SDS011;4307;53.868;11.680;2022-10-16T04:24:39;3.00;;;2.20;;
8538;SDS011;4307;53.868;11.680;2022-10-16T04:27:06;2.60;;;2.30;;
8538;SDS011;4307;53.868;11.680;2022-10-16T04:29:32;2.70;;;2.13;;
8538;SDS011;4307;53.868;11.680;2022-10-16T04:31:59;3.60;;;2.30;;
8538;SDS011;4307;53.868;11.680;2022-10-16T04:34:27;2.53;;;1.70;;
8538;SDS011;4307;53.868;11.680;2022-10-16T04:36:54;2.30;;;2.10;;
8538;SDS011;4307;53.868;11.680;2022-10-16T04:39:20;2.27;;;2.17;;
8538;SDS011;4307;53.868;11.680;2022-10-16T04:41:47;3.87;;;1.93;;
8538;SDS011;4307;53.868;11.680;2022-10-16T04:44:14;2.37;;;1.97;;
8538;SDS011;4307;53.868;11.680;2022-10-16T04:46:40;2.10;;;1.90;;
8538;SDS011;4307;53.868;11.680;2022-10-16T04:49:07;1.10;;;1.10;;
8538;SDS011;4307;53.868;11.680;2022-10-16T04:51:35;2.27;;;2.07;;
8538;SDS011;4307;53.868;11.680;2022-10-16T04:54:02;2.73;;;2.40;;
8538;SDS011;4307;53.868;11.680;2022-10-16T04:56:28;1.70;;;1.60;;
8538;SDS011;4307;53.868;11.680;2022-10-16T04:58:55;4.97;;;2.20;;
8538;SDS011;4307;53.868;11.680;2022-10-16T05:01:22;3.97;;;2.20;;
8538;SDS011;4307;53.868;11.680;2022-10-16T05:03:49;1.00;;;1.00;;
8538;SDS011;4307;53.868;11.680;2022-10-16T05:06:16;3.50;;;1.73;;
8538;SDS011;4307;53.868;11.680;2022-10-16T05:08:43;2.13;;;1.70;;
8538;SDS011;4307;53.868;11.680;2022-10-16T05:11:10;3.33;;;2.10;;
8538;SDS011;4307;53.868;11.680;2022-10-16T05:13:37;1.80;;;1.70;;
8538;SDS011;4307;53.868;11.680;2022-10-16T05:16:04;4.00;;;1.57;;
8538;SDS011;4307;53.868;11.680;2022-10-16T05:18:31;2.77;;;2.50;;
8538;SDS011;4307;53.868;11.680;2022-10-16T05:20:57;1.80;;;1.70;;
8538;SDS011;4307;53.868;11.680;2022-10-16T05:23:24;2.77;;;1.63;;
8538;SDS011;4307;53.868;11.680;2022-10-16T05:25:55;3.13;;;1.57;;
8538;SDS011;4307;53.868;11.680;2022-10-16T05:28:23;5.57;;;1.90;;
8538;SDS011;4307;53.868;11.680;2022-10-16T05:30:50;1.80;;;1.60;;
8538;SDS011;4307;53.868;11.680;2022-10-16T05:33:17;3.83;;;1.90;;
8538;SDS011;4307;53.868;11.680;2022-10-16T05:35:45;2.00;;;1.77;;
8538;SDS011;4307;53.868;11.680;2022-10-16T05:38:12;2.43;;;1.83;;
8538;SDS011;4307;53.868;11.680;2022-10-16T05:40:39;1.80;;;1.67;;
8538;SDS011;4307;53.868;11.680;2022-10-16T05:43:07;2.13;;;1.00;;
8538;SDS011;4307;53.868;11.680;2022-10-16T05:45:33;3.40;;;2.70;;
8538;SDS011;4307;53.868;11.680;2022-10-16T05:48:00;2.47;;;1.87;;
8538;SDS011;4307;53.868;11.680;2022-10-16T05:50:27;3.67;;;1.90;;
8538;SDS011;4307;53.868;11.680;2022-10-16T05:52:54;2.57;;;1.93;;
8538;SDS011;4307;53.868;11.680;2022-10-16T05:55:20;2.10;;;1.60;;
8538;SDS011;4307;53.868;11.680;2022-10-16T05:57:47;3.47;;;1.80;;
8538;SDS011;4307;53.868;11.680;2022-10-16T06:00:15;2.43;;;1.70;;
8538;SDS011;4307;53.868;11.680;2022-10-16T06:02:42;3.80;;;1.47;;
8538;SDS011;4307;53.868;11.680;2022-10-16T06:05:08;2.57;;;1.67;;
8538;SDS011;4307;53.868;11.680;2022-10-16T06:07:35;3.47;;;1.97;;
8538;SDS011;4307;53.868;11.680;2022-10-16T06:10:02;5.47;;;2.60;;
8538;SDS011;4307;53.868;11.680;2022-10-16T06:12:30;1.93;;;1.77;;
8538;SDS011;4307;53.868;11.680;2022-10-16T06:14:56;2.53;;;2.00;;
8538;SDS011;4307;53.868;11.680;2022-10-16T06:17:24;2.50;;;2.00;;
8538;SDS011;4307;53.868;11.680;2022-10-16T06:19:51;2.73;;;1.70;;
8538;SDS011;4307;53.868;11.680;2022-10-16T06:22:18;2.27;;;1.77;;
8538;SDS011;4307;53.868;11.680;2022-10-16T06:24:45;5.33;;;1.77;;
8538;SDS011;4307;53.868;11.680;2022-10-16T06:27:12;7.00;;;2.07;;
8538;SDS011;4307;53.868;11.680;2022-10-16T06:29:39;3.43;;;1.73;;
8538;SDS011;4307;53.868;11.680;2022-10-16T06:32:05;1.93;;;1.10;;
8538;SDS011;4307;53.868;11.680;2022-10-16T06:34:33;5.23;;;2.00;;
8538;SDS011;4307;53.868;11.680;2022-10-16T06:37:00;4.33;;;2.00;;
8538;SDS011;4307;53.868;11.680;2022-10-16T06:39:26;1.57;;;1.30;;
8538;SDS011;4307;53.868;11.680;2022-10-16T06:41:53;3.83;;;1.40;;
8538;SDS011;4307;53.868;11.680;2022-10-16T06:44:20;2.17;;;1.97;;
8538;SDS011;4307;53.868;11.680;2022-10-16T06:46:46;5.17;;;1.93;;
8538;SDS011;4307;53.868;11.680;2022-10-16T06:49:13;2.57;;;2.33;;
8538;SDS011;4307;53.868;11.680;2022-10-16T06:51:47;3.23;;;1.90;;
8538;SDS011;4307;53.868;11.680;2022-10-16T06:54:14;4.53;;;2.30;;
8538;SDS011;4307;53.868;11.680;2022-10-16T06:56:41;2.63;;;2.00;;
8538;SDS011;4307;53.868;11.680;2022-10-16T06:59:08;4.83;;;2.23;;
8538;SDS011;4307;53.868;11.680;2022-10-16T07:01:34;3.63;;;2.30;;
8538;SDS011;4307;53.868;11.680;2022-10-16T07:04:01;2.93;;;1.90;;
8538;SDS011;4307;53.868;11.680;2022-10-16T07:06:30;4.10;;;1.67;;
8538;SDS011;4307;53.868;11.680;2022-10-16T07:09:00;3.50;;;2.20;;
8538;SDS011;4307;53.868;11.680;2022-10-16T07:11:28;3.37;;;2.57;;
8538;SDS011;4307;53.868;11.680;2022-10-16T07:13:55;6.27;;;2.67;;
8538;SDS011;4307;53.868;11.680;2022-10-16T07:16:22;3.27;;;1.90;;
8538;SDS011;4307;53.868;11.680;2022-10-16T07:18:50;2.97;;;1.90;;
8538;SDS011;4307;53.868;11.680;2022-10-16T07:21:22;2.80;;;2.00;;
8538;SDS011;4307;53.868;11.680;2022-10-16T07:23:50;2.60;;;1.90;;
8538;SDS011;4307;53.868;11.680;2022-10-16T07:26:18;2.53;;;1.57;;
8538;SDS011;4307;53.868;11.680;2022-10-16T07:28:45;4.80;;;1.97;;
8538;SDS011;4307;53.868;11.680;2022-10-16T07:31:13;1.97;;;1.73;;
8538;SDS011;4307;53.868;11.680;2022-10-16T07:33:41;2.40;;;1.60;;
8538;SDS011;4307;53.868;11.680;2022-10-16T07:36:09;4.97;;;2.60;;
8538;SDS011;4307;53.868;11.680;2022-10-16T07:38:37;3.93;;;2.00;;
8538;SDS011;4307;53.868;11.680;2022-10-16T07:41:04;1.50;;;1.40;;
8538;SDS011;4307;53.868;11.680;2022-10-16T07:43:33;3.10;;;1.27;;
8538;SDS011;4307;53.868;11.680;2022-10-16T07:46:00;3.40;;;1.80;;
8538;SDS011;4307;53.868;11.680;2022-10-16T07:48:27;5.30;;;3.13;;
8538;SDS011;4307;53.868;11.680;2022-10-16T07:50:56;1.33;;;1.23;;
8538;SDS011;4307;53.868;11.680;2022-10-16T07:53:23;4.83;;;1.53;;
8538;SDS011;4307;53.868;11.680;2022-10-16T07:55:50;3.30;;;1.90;;
8538;SDS011;4307;53.868;11.680;2022-10-16T07:58:16;3.73;;;1.93;;
8538;SDS011;4307;53.868;11.680;2022-10-16T08:00:44;4.07;;;2.00;;
8538;SDS011;4307;53.868;11.680;2022-10-16T08:03:11;1.83;;;1.60;;
8538;SDS011;4307;53.868;11.680;2022-10-16T08:05:38;3.63;;;1.43;;
8538;SDS011;4307;53.868;11.680;2022-10-16T08:08:04;4.10;;;1.97;;
8538;SDS011;4307;53.868;11.680;2022-10-16T08:10:31;3.07;;;1.70;;
8538;SDS011;4307;53.868;11.680;2022-10-16T08:12:58;1.90;;;1.70;;
8538;SDS011;4307;53.868;11.680;2022-10-16T08:15:24;3.80;;;1.33;;
8538;SDS011;4307;53.868;11.680;2022-10-16T08:17:56;2.40;;;1.17;;
8538;SDS011;4307;53.868;11.680;2022-10-16T08:20:24;2.37;;;1.70;;
8538;SDS011;4307;53.868;11.680;2022-10-16T08:22:52;1.83;;;1.20;;
8538;SDS011;4307;53.868;11.680;2022-10-16T08:25:18;3.03;;;1.70;;
8538;SDS011;4307;53.868;11.680;2022-10-16T08:27:45;1.97;;;1.40;;
8538;SDS011;4307;53.868;11.680;2022-10-16T08:30:12;1.60;;;1.50;;
8538;SDS011;4307;53.868;11.680;2022-10-16T08:32:39;4.53;;;1.50;;
8538;SDS011;4307;53.868;11.680;2022-10-16T08:35:08;3.37;;;1.77;;
8538;SDS011;4307;53.868;11.680;2022-10-16T08:37:35;4.13;;;1.80;;
8538;SDS011;4307;53.868;11.680;2022-10-16T08:40:04;2.50;;;1.87;;
8538;SDS011;4307;53.868;11.680;2022-10-16T08:42:36;3.70;;;1.97;;
8538;SDS011;4307;53.868;11.680;2022-10-16T08:45:25;2.30;;;0.90;;
8538;SDS011;4307;53.868;11.680;2022-10-16T08:48:08;4.60;;;1.80;;
8538;SDS011;4307;53.868;11.680;2022-10-16T08:50:44;1.60;;;1.50;;
8538;SDS011;4307;53.868;11.680;2022-10-16T08:53:14;1.67;;;1.00;;
8538;SDS011;4307;53.868;11.680;2022-10-16T08:55:48;5.20;;;2.13;;
8538;SDS011;4307;53.868;11.680;2022-10-16T08:58:17;1.67;;;1.50;;
8538;SDS011;4307;53.868;11.680;2022-10-16T09:00:46;1.43;;;0.93;;
8538;SDS011;4307;53.868;11.680;2022-10-16T09:03:17;4.07;;;1.73;;
8538;SDS011;4307;53.868;11.680;2022-10-16T09:05:54;4.30;;;1.40;;
8538;SDS011;4307;53.868;11.680;2022-10-16T09:08:32;4.20;;;1.93;;
8538;SDS011;4307;53.868;11.680;2022-10-16T09:11:09;1.87;;;1.03;;
8538;SDS011;4307;53.868;11.680;2022-10-16T09:13:43;1.47;;;1.07;;
8538;SDS011;4307;53.868;11.680;2022-10-16T09:16:18;1.60;;;1.50;;
8538;SDS011;4307;53.868;11.680;2022-10-16T09:18:49;1.70;;;0.87;;
8538;SDS011;4307;53.868;11.680;2022-10-16T09:21:25;1.67;;;0.83;;
8538;SDS011;4307;53.868;11.680;2022-10-16T09:23:55;2.03;;;1.00;;
8538;SDS011;4307;53.868;11.680;2022-10-16T09:26:24;2.87;;;1.67;;
8538;SDS011;4307;53.868;11.680;2022-10-16T09:28:51;3.13;;;1.47;;
8538;SDS011;4307;53.868;11.680;2022-10-16T09:31:19;2.13;;;1.20;;
8538;SDS011;4307;53.868;11.680;2022-10-16T09:33:48;3.20;;;1.43;;
8538;SDS011;4307;53.868;11.680;2022-10-16T09:36:18;1.43;;;1.33;;
8538;SDS011;4307;53.868;11.680;2022-10-16T09:38:47;4.87;;;1.67;;
8538;SDS011;4307;53.868;11.680;2022-10-16T09:41:16;2.40;;;1.13;;
8538;SDS011;4307;53.868;11.680;2022-10-16T09:43:49;2.97;;;2.00;;
8538;SDS011;4307;53.868;11.680;2022-10-16T09:46:21;1.70;;;1.60;;
8538;SDS011;4307;53.868;11.680;2022-10-16T09:48:54;1.90;;;1.70;;
8538;SDS011;4307;53.868;11.680;2022-10-16T09:51:25;3.60;;;1.63;;
8538;SDS011;4307;53.868;11.680;2022-10-16T09:53:58;2.70;;;1.93;;
8538;SDS011;4307;53.868;11.680;2022-10-16T09:56:27;3.63;;;1.63;;
8538;SDS011;4307;53.868;11.680;2022-10-16T09:58:55;2.50;;;2.00;;
8538;SDS011;4307;53.868;11.680;2022-10-16T10:01:24;4.17;;;1.90;;
8538;SDS011;4307;53.868;11.680;2022-10-16T10:03:55;1.90;;;1.23;;
8538;SDS011;4307;53.868;11.680;2022-10-16T10:06:27;2.37;;;1.70;;
8538;SDS011;4307;53.868;11.680;2022-10-16T10:08:58;1.77;;;1.23;;
8538;SDS011;4307;53.868;11.680;2022-10-16T10:11:40;3.33;;;1.80;;
8538;SDS011;4307;53.868;11.680;2022-10-16T10:14:15;3.03;;;1.70;;
8538;SDS011;4307;53.868;11.680;2022-10-16T10:16:45;1.67;;;1.30;;
8538;SDS011;4307;53.868;11.680;2022-10-16T10:19:13;0.97;;;0.90;;
8538;SDS011;4307;53.868;11.680;2022-10-16T10:21:41;1.60;;;1.13;;
8538;SDS011;4307;53.868;11.680;2022-10-16T10:24:11;1.83;;;1.33;;
8538;SDS011;4307;53.868;11.680;2022-10-16T10:26:38;1.17;;;1.17;;
8538;SDS011;4307;53.868;11.680;2022-10-16T10:29:14;1.67;;;1.50;;
8538;SDS011;4307;53.868;11.680;2022-10-16T10:31:49;1.20;;;1.10;;
8538;SDS011;4307;53.868;11.680;2022-10-16T10:34:33;2.73;;;1.00;;
8538;SDS011;4307;53.868;11.680;2022-10-16T10:37:09;0.87;;;0.83;;
8538;SDS011;4307;53.868;11.680;2022-10-16T10:39:52;1.93;;;1.83;;
8538;SDS011;4307;53.868;11.680;2022-10-16T10:42:24;1.70;;;0.70;;
8538;SDS011;4307;53.868;11.680;2022-10-16T10:44:59;0.90;;;0.90;;
8538;SDS011;4307;53.868;11.680;2022-10-16T10:47:43;0.90;;;0.90;;
8538;SDS011;4307;53.868;11.680;2022-10-16T10:50:20;1.93;;;0.90;;
8538;SDS011;4307;53.868;11.680;2022-10-16T10:52:58;1.37;;;0.70;;
8538;SDS011;4307;53.868;11.680;2022-10-16T10:55:33;2.07;;;0.80;;
8538;SDS011;4307;53.868;11.680;2022-10-16T10:58:13;1.57;;;1.17;;
8538;SDS011;4307;53.868;11.680;2022-10-16T16:43:09;3.77;;;2.10;;
8538;SDS011;4307;53.868;11.680;2022-10-16T16:45:35;6.53;;;1.90;;
8538;SDS011;4307;53.868;11.680;2022-10-16T16:48:02;2.43;;;2.23;;
8538;SDS011;4307;53.868;11.680;2022-10-16T16:50:31;3.67;;;2.43;;
8538;SDS011;4307;53.868;11.680;2022-10-16T16:53:01;5.40;;;2.60;;
8538;SDS011;4307;53.868;11.680;2022-10-16T16:55:28;4.40;;;2.47;;
8538;SDS011;4307;53.868;11.680;2022-10-16T16:57:54;3.20;;;2.50;;
8538;SDS011;4307;53.868;11.680;2022-10-16T17:00:23;5.03;;;2.93;;
8538;SDS011;4307;53.868;11.680;2022-10-16T17:02:49;8.67;;;3.87;;
8538;SDS011;4307;53.868;11.680;2022-10-16T17:05:16;12.83;;;4.83;;
8538;SDS011;4307;53.868;11.680;2022-10-16T17:07:43;8.93;;;4.30;;
8538;SDS011;4307;53.868;11.680;2022-10-16T17:10:10;6.30;;;3.37;;
8538;SDS011;4307;53.868;11.680;2022-10-16T17:12:37;7.30;;;3.40;;
8538;SDS011;4307;53.868;11.680;2022-10-16T17:15:04;6.40;;;3.10;;
8538;SDS011;4307;53.868;11.680;2022-10-16T17:17:32;9.33;;;3.97;;
8538;SDS011;4307;53.868;11.680;2022-10-16T17:19:59;6.77;;;3.37;;
8538;SDS011;4307;53.868;11.680;2022-10-16T17:22:25;16.50;;;7.17;;
8538;SDS011;4307;53.868;11.680;2022-10-16T17:24:52;13.37;;;7.60;;
8538;SDS011;4307;53.868;11.680;2022-10-16T17:27:19;12.40;;;7.50;;
8538;SDS011;4307;53.868;11.680;2022-10-16T17:29:49;12.77;;;7.90;;
8538;SDS011;4307;53.868;11.680;2022-10-16T17:32:16;14.47;;;7.17;;
8538;SDS011;4307;53.868;11.680;2022-10-16T17:34:45;12.77;;;6.43;;
8538;SDS011;4307;53.868;11.680;2022-10-16T17:37:12;6.67;;;4.40;;
8538;SDS011;4307;53.868;11.680;2022-10-16T17:39:39;12.50;;;5.97;;
8538;SDS011;4307;53.868;11.680;2022-10-16T17:42:06;6.60;;;4.80;;
8538;SDS011;4307;53.868;11.680;2022-10-16T17:44:32;5.43;;;4.17;;
8538;SDS011;4307;53.868;11.680;2022-10-16T17:46:59;7.17;;;4.60;;
8538;SDS011;4307;53.868;11.680;2022-10-16T17:49:26;6.40;;;4.13;;
8538;SDS011;4307;53.868;11.680;2022-10-16T17:51:54;5.23;;;4.13;;
8538;SDS011;4307;53.868;11.680;2022-10-16T17:54:20;8.57;;;4.17;;
8538;SDS011;4307;53.868;11.680;2022-10-16T17:56:47;5.53;;;3.77;;
8538;SDS011;4307;53.868;11.680;2022-10-16T17:59:14;9.57;;;4.00;;
8538;SDS011;4307;53.868;11.680;2022-10-16T18:01:40;14.40;;;6.27;;
8538;SDS011;4307;53.868;11.680;2022-10-16T18:04:10;8.80;;;5.43;;
8538;SDS011;4307;53.868;11.680;2022-10-16T18:06:39;10.07;;;5.77;;
8538;SDS011;4307;53.868;11.680;2022-10-16T18:09:08;9.13;;;5.50;;
8538;SDS011;4307;53.868;11.680;2022-10-16T18:11:36;7.60;;;4.30;;
8538;SDS011;4307;53.868;11.680;2022-10-16T18:14:03;7.30;;;4.27;;
8538;SDS011;4307;53.868;11.680;2022-10-16T18:16:30;7.90;;;4.60;;
8538;SDS011;4307;53.868;11.680;2022-10-16T18:18:57;10.10;;;4.33;;
8538;SDS011;4307;53.868;11.680;2022-10-16T18:21:25;7.00;;;3.47;;
8538;SDS011;4307;53.868;11.680;2022-10-16T18:23:52;5.13;;;3.67;;
8538;SDS011;4307;53.868;11.680;2022-10-16T18:26:21;8.20;;;3.97;;
8538;SDS011;4307;53.868;11.680;2022-10-16T18:28:50;8.90;;;4.00;;
8538;SDS011;4307;53.868;11.680;2022-10-16T18:31:17;7.03;;;4.00;;
8538;SDS011;4307;53.868;11.680;2022-10-16T18:33:44;6.80;;;3.90;;
8538;SDS011;4307;53.868;11.680;2022-10-16T18:36:15;7.43;;;3.50;;
8538;SDS011;4307;53.868;11.680;2022-10-16T18:38:42;6.03;;;3.50;;
8538;SDS011;4307;53.868;11.680;2022-10-16T18:41:09;9.63;;;3.67;;
8538;SDS011;4307;53.868;11.680;2022-10-16T18:43:37;7.57;;;3.53;;
8538;SDS011;4307;53.868;11.680;2022-10-16T18:46:05;5.60;;;2.60;;
8538;SDS011;4307;53.868;11.680;2022-10-16T18:48:33;4.57;;;2.67;;
8538;SDS011;4307;53.868;11.680;2022-10-16T18:51:09;4.27;;;3.30;;
8538;SDS011;4307;53.868;11.680;2022-10-16T18:53:38;4.23;;;2.87;;
8538;SDS011;4307;53.868;11.680;2022-10-16T18:56:06;3.60;;;2.73;;
8538;SDS011;4307;53.868;11.680;2022-10-16T18:58:34;5.27;;;2.60;;
8538;SDS011;4307;53.868;11.680;2022-10-16T19:01:05;3.97;;;2.63;;
8538;SDS011;4307;53.868;11.680;2022-10-16T19:03:33;5.13;;;2.93;;
8538;SDS011;4307;53.868;11.680;2022-10-16T19:06:00;7.23;;;2.83;;
8538;SDS011;4307;53.868;11.680;2022-10-16T19:08:28;6.97;;;3.10;;
8538;SDS011;4307;53.868;11.680;2022-10-16T19:11:00;6.67;;;3.13;;
8538;SDS011;4307;53.868;11.680;2022-10-16T19:13:28;8.80;;;2.70;;
8538;SDS011;4307;53.868;11.680;2022-10-16T19:15:55;3.20;;;2.47;;
8538;SDS011;4307;53.868;11.680;2022-10-16T19:18:23;6.67;;;3.53;;
8538;SDS011;4307;53.868;11.680;2022-10-16T19:20:51;5.40;;;3.27;;
8538;SDS011;4307;53.868;11.680;2022-10-16T19:23:17;4.23;;;3.03;;
8538;SDS011;4307;53.868;11.680;2022-10-16T19:25:44;6.10;;;3.30;;
8538;SDS011;4307;53.868;11.680;2022-10-16T19:28:11;6.87;;;3.67;;
8538;SDS011;4307;53.868;11.680;2022-10-16T19:30:37;7.10;;;3.27;;
8538;SDS011;4307;53.868;11.680;2022-10-16T19:33:06;5.47;;;2.70;;
8538;SDS011;4307;53.868;11.680;2022-10-16T19:35:34;5.50;;;2.50;;
8538;SDS011;4307;53.868;11.680;2022-10-16T19:38:01;4.17;;;2.77;;
8538;SDS011;4307;53.868;11.680;2022-10-16T19:40:28;4.83;;;2.70;;
8538;SDS011;4307;53.868;11.680;2022-10-16T19:42:54;7.00;;;2.83;;
8538;SDS011;4307;53.868;11.680;2022-10-16T19:45:21;3.20;;;2.60;;
8538;SDS011;4307;53.868;11.680;2022-10-16T19:47:48;8.97;;;2.53;;
8538;SDS011;4307;53.868;11.680;2022-10-16T19:50:14;4.37;;;2.73;;
8538;SDS011;4307;53.868;11.680;2022-10-16T19:52:44;3.20;;;2.37;;
8538;SDS011;4307;53.868;11.680;2022-10-16T19:55:11;7.47;;;2.50;;
8538;SDS011;4307;53.868;11.680;2022-10-16T19:57:38;3.17;;;2.23;;
8538;SDS011;4307;53.868;11.680;2022-10-16T20:00:06;2.97;;;2.43;;
8538;SDS011;4307;53.868;11.680;2022-10-16T20:02:34;3.80;;;2.20;;
8538;SDS011;4307;53.868;11.680;2022-10-16T20:05:01;8.57;;;2.67;;
8538;SDS011;4307;53.868;11.680;2022-10-16T20:07:28;4.73;;;2.03;;
8538;SDS011;4307;53.868;11.680;2022-10-16T20:09:56;3.70;;;2.17;;
8538;SDS011;4307;53.868;11.680;2022-10-16T20:12:23;5.07;;;2.50;;
8538;SDS011;4307;53.868;11.680;2022-10-16T20:14:49;2.50;;;1.90;;
8538;SDS011;4307;53.868;11.680;2022-10-16T20:17:16;6.87;;;2.60;;
8538;SDS011;4307;53.868;11.680;2022-10-16T20:19:42;2.87;;;2.43;;
8538;SDS011;4307;53.868;11.680;2022-10-16T20:22:09;4.67;;;1.80;;
8538;SDS011;4307;53.868;11.680;2022-10-16T20:24:36;4.20;;;1.70;;
8538;SDS011;4307;53.868;11.680;2022-10-16T20:27:04;3.17;;;1.77;;
8538;SDS011;4307;53.868;11.680;2022-10-16T20:29:30;5.50;;;2.20;;
8538;SDS011;4307;53.868;11.680;2022-10-16T20:31:57;5.70;;;2.43;;
8538;SDS011;4307;53.868;11.680;2022-10-16T20:34:23;4.50;;;2.10;;
8538;SDS011;4307;53.868;11.680;2022-10-16T20:36:50;3.13;;;2.13;;
8538;SDS011;4307;53.868;11.680;2022-10-16T20:39:17;4.53;;;2.17;;
8538;SDS011;4307;53.868;11.680;2022-10-16T20:41:43;4.87;;;2.17;;
8538;SDS011;4307;53.868;11.680;2022-10-16T20:44:11;2.70;;;2.10;;
8538;SDS011;4307;53.868;11.680;2022-10-16T20:46:38;2.93;;;2.27;;
8538;SDS011;4307;53.868;11.680;2022-10-16T20:49:05;5.53;;;2.60;;
8538;SDS011;4307;53.868;11.680;2022-10-16T20:51:32;2.87;;;2.43;;